Latest Weather Observations for Strahan

IDT60801

Issued at 12:32 pm EST Thursday 28 July 2016 (issued every 30 minutes, with the page automatically refreshed every 10 minutes)

About weather observations | Map of weather stations | Latest weather observations for TAS | Other Formats
Station Details ID: 097072 Name: STRAHAN AERODROME Lat: -42.16 Lon: 145.29 Height: 21.0 m
Data from the previous 72 hours. | See also: Recent months at Strahan
Date/Time
EST
Temp
°C
App
Temp
°C
Dew
Point
°C
Rel
Hum
%
Delta-T
°C
Wind Press
QNH
hPa
Press
MSL
hPa
Rain since
9am
mm
Dir  Spd
km/h
Gust
km/h
Spd
kts
Gust
kts
28/12:30pm 10.7 4.7 8.8 88 0.9 WNW 30 44 16 24 1014.4 1014.5 1.0
28/12:21pm 10.7 5.8 8.6 87 1.0 WNW 24 35 13 19 1014.5 1014.6 1.0
28/12:00pm 10.5 4.1 8.6 88 0.9 W 32 50 17 27 1014.7 1014.8 0.8
28/11:59am 10.6 4.2 8.5 87 1.0 W 32 50 17 27 1014.7 1014.8 0.8
28/11:35am 10.9 5.1 9.5 91 0.7 W 30 43 16 23 1014.8 1014.9 0.8
28/11:30am 10.4 4.4 8.8 90 0.8 WNW 30 43 16 23 1014.8 1014.9 0.8
28/11:15am 10.2 3.7 8.3 88 0.9 WNW 32 59 17 32 1014.9 1015.0 0.6
28/11:13am 10.5 4.9 8.6 88 0.9 WNW 28 56 15 30 1014.8 1014.9 0.6
28/11:00am 10.8 4.8 8.6 86 1.1 W 30 41 16 22 1014.9 1015.0 0.4
28/10:30am 10.7 4.8 9.0 89 0.8 WNW 30 39 16 21 1014.8 1014.9 0.4
28/10:11am 10.7 4.4 9.1 90 0.8 WNW 32 41 17 22 1014.6 1014.7 0.4
28/10:00am 10.3 3.8 8.9 91 0.7 WNW 33 44 18 24 1014.4 1014.5 0.4
28/09:56am 10.4 3.9 8.8 90 0.8 WNW 33 44 18 24 1014.4 1014.5 0.4
28/09:39am 10.7 5.2 9.3 91 0.7 WNW 28 43 15 23 1014.3 1014.4 0.4
28/09:30am 10.7 4.9 9.3 91 0.7 WNW 30 48 16 26 1014.3 1014.4 0.2
28/09:24am 10.6 4.3 8.9 89 0.8 WNW 32 44 17 24 1014.5 1014.6 0.2
28/09:09am 10.6 4.7 8.9 89 0.8 WNW 30 50 16 27 1014.2 1014.3 0.0
28/09:00am 10.8 5.2 8.7 87 1.0 WNW 28 41 15 22 1014.2 1014.3 6.4
28/08:30am 10.5 4.2 9.1 91 0.7 WNW 32 50 17 27 1013.8 1013.9 6.4
28/08:28am 10.6 4.7 9.0 90 0.8 WNW 30 50 16 27 1013.7 1013.8 6.4
28/08:26am 10.6 5.1 9.0 90 0.8 WNW 28 43 15 23 1013.7 1013.8 6.4
28/08:07am 10.6 5.1 9.0 90 0.8 WNW 28 46 15 25 1013.7 1013.8 6.2
28/08:00am 10.5 5.7 8.9 90 0.8 WNW 24 37 13 20 1013.6 1013.7 6.0
28/07:51am 10.5 4.9 8.9 90 0.8 WNW 28 39 15 21 1013.4 1013.5 5.8
28/07:31am 10.3 3.3 8.6 89 0.8 WNW 35 65 19 35 1013.2 1013.3 5.8
28/07:30am 10.6 4.1 8.9 89 0.8 WNW 33 65 18 35 1013.1 1013.2 5.4
28/07:21am 10.5 3.6 8.9 90 0.8 WNW 35 52 19 28 1013.1 1013.2 5.2
28/07:13am 10.4 4.1 8.8 90 0.8 WNW 32 52 17 28 1013.1 1013.2 5.2
28/07:03am 10.4 4.1 8.8 90 0.8 WNW 32 46 17 25 1013.0 1013.1 5.2
28/07:00am 10.6 4.7 8.9 89 0.8 WNW 30 46 16 25 1012.9 1013.0 5.2
28/06:58am 10.6 5.0 8.9 89 0.8 WNW 28 43 15 23 1012.9 1013.0 5.2
28/06:41am 10.4 3.8 8.7 89 0.8 WNW 33 48 18 26 1012.8 1012.9 5.2
28/06:40am 10.4 4.0 8.7 89 0.8 WNW 32 48 17 26 1012.8 1012.9 5.2
28/06:30am 10.4 4.1 9.0 91 0.7 WNW 32 46 17 25 1012.7 1012.8 5.0
28/06:22am 10.1 2.4 8.5 90 0.8 WNW 39 57 21 31 1012.7 1012.8 5.0
28/06:19am 10.3 2.9 8.4 88 0.9 WNW 37 57 20 31 1012.6 1012.7 5.0
28/06:00am 10.6 4.4 9.2 91 0.7 WNW 32 48 17 26 1012.4 1012.5 5.0
28/05:31am 10.4 4.5 9.0 91 0.7 WNW 30 52 16 28 1012.0 1012.1 5.0
28/05:30am 10.5 5.0 9.1 91 0.7 WNW 28 52 15 28 1012.0 1012.1 5.0
28/05:21am 10.3 4.0 8.9 91 0.7 WNW 32 50 17 27 1012.0 1012.1 5.0
28/05:12am 10.4 3.5 8.8 90 0.8 WNW 35 50 19 27 1012.0 1012.1 5.0
28/05:00am 10.8 4.2 8.7 87 1.0 WNW 33 46 18 25 1011.9 1012.0 4.6
28/04:30am 10.4 3.2 9.0 91 0.7 WNW 37 56 20 30 1011.8 1011.9 4.6
28/04:29am 10.4 3.2 9.0 91 0.7 WNW 37 56 20 30 1011.8 1011.9 4.6
28/04:09am 10.4 3.5 9.0 91 0.7 WNW 35 57 19 31 1011.9 1012.0 4.2
28/04:00am 10.3 4.4 8.9 91 0.7 WNW 30 41 16 22 1011.8 1011.9 4.0
28/03:44am 10.2 3.0 9.0 92 0.6 WNW 37 54 20 29 1011.8 1011.9 4.0
28/03:41am 10.1 3.2 8.9 92 0.6 WNW 35 54 19 29 1011.8 1011.9 4.0
28/03:37am 10.4 4.2 9.2 92 0.6 WNW 32 50 17 27 1011.9 1012.0 4.0
28/03:33am 10.2 4.3 9.0 92 0.6 WNW 30 44 16 24 1011.9 1012.0 4.0
28/03:30am 10.2 3.9 9.0 92 0.6 W 32 44 17 24 1012.0 1012.1 4.0
28/03:19am 10.5 4.2 9.1 91 0.7 WNW 32 46 17 25 1012.0 1012.1 3.6
28/03:15am 10.6 5.1 9.0 90 0.8 WNW 28 46 15 25 1012.1 1012.2 3.4
28/03:00am 10.4 5.2 9.0 91 0.7 WNW 26 37 14 20 1012.2 1012.3 3.4
28/02:52am 10.4 4.5 9.2 92 0.6 WNW 30 39 16 21 1012.3 1012.4 3.4
28/02:32am 10.4 4.0 8.7 89 0.8 WNW 32 44 17 24 1012.2 1012.3 3.0
28/02:30am 10.6 4.7 8.9 89 0.8 WNW 30 43 16 23 1012.3 1012.4 2.8
28/02:00am 11.0 5.1 7.3 78 1.8 W 28 37 15 20 1012.4 1012.5 2.6
28/01:30am 10.5 3.9 7.9 84 1.3 WNW 32 46 17 25 1012.4 1012.5 2.6
28/01:00am 11.1 4.5 7.6 79 1.7 WNW 32 46 17 25 1012.2 1012.3 2.6
28/12:30am 11.0 5.1 7.5 79 1.7 WNW 28 43 15 23 1011.7 1011.8 2.6
28/12:00am 10.9 5.3 7.2 78 1.8 WNW 26 37 14 20 1011.8 1011.9 2.6
 
Date/Time
EST
Temp
°C
App
Temp
°C
Dew
Point
°C
Rel
Hum
%
Delta-T
°C
Wind Press
QNH
hPa
Press
MSL
hPa
Rain since
9am
mm
Dir  Spd
km/h
Gust
km/h
Spd
kts
Gust
kts
27/11:30pm 10.8 5.2 7.3 79 1.7 W 26 35 14 19 1011.7 1011.8 2.6
27/11:00pm 10.9 5.3 7.2 78 1.8 W 26 41 14 22 1011.6 1011.7 2.6
27/10:30pm 11.0 5.1 7.7 80 1.6 W 28 37 15 20 1011.3 1011.4 2.6
27/10:00pm 10.7 4.7 7.2 79 1.7 W 28 43 15 23 1011.1 1011.2 2.6
27/09:30pm 10.8 4.0 7.7 81 1.5 W 33 48 18 26 1010.6 1010.7 2.6
27/09:00pm 10.9 4.4 8.1 83 1.4 W 32 46 17 25 1010.2 1010.3 2.6
27/08:45pm 10.7 3.6 8.1 84 1.3 WSW 35 54 19 29 1010.1 1010.2 2.6
27/08:30pm 10.6 3.7 8.7 88 0.9 WSW 35 52 19 28 1010.0 1010.1 2.6
27/08:16pm 10.7 3.8 8.8 88 0.9 W 35 56 19 30 1009.9 1010.0 2.6
27/08:00pm 11.0 3.4 8.9 87 1.0 W 39 52 21 28 1009.8 1009.9 2.6
27/07:33pm 10.8 3.6 9.1 89 0.8 WSW 37 56 20 30 1009.2 1009.3 2.6
27/07:32pm 10.7 3.1 9.0 89 0.8 WSW 39 56 21 30 1009.1 1009.2 2.6
27/07:30pm 10.7 2.7 9.1 90 0.8 WSW 41 63 22 34 1009.1 1009.2 2.6
27/07:08pm 11.1 2.5 9.0 87 1.0 W 44 63 24 34 1008.7 1008.8 2.0
27/07:00pm 11.0 2.0 8.8 86 1.1 W 46 65 25 35 1008.4 1008.5 2.0
27/06:30pm 10.8 2.2 8.9 88 0.9 W 44 67 24 36 1008.2 1008.3 2.0
27/06:16pm 10.7 1.7 8.8 88 0.9 W 46 65 25 35 1007.9 1008.0 2.0
27/06:00pm 10.5 1.1 8.9 90 0.8 W 48 67 26 36 1007.8 1007.9 2.0
27/05:54pm 10.5 0.7 8.8 89 0.8 W 50 80 27 43 1007.9 1008.0 1.8
27/05:44pm 10.4 1.4 8.7 89 0.8 W 46 72 25 39 1007.7 1007.8 1.8
27/05:30pm 10.2 2.5 8.6 90 0.8 WNW 39 59 21 32 1007.7 1007.8 1.8
27/05:20pm 10.0 2.6 8.3 89 0.8 WNW 37 57 20 31 1007.7 1007.8 1.6
27/05:00pm 9.9 1.0 7.8 87 1.0 WNW 44 67 24 36 1007.7 1007.8 1.6
27/04:35pm 9.3 0.6 7.6 89 0.8 WNW 43 63 23 34 1007.7 1007.8 1.6
27/04:30pm 9.2 0.5 7.6 90 0.8 WNW 43 57 23 31 1007.7 1007.8 1.6
27/04:21pm 8.9 -0.1 7.4 90 0.7 WNW 44 61 24 33 1007.6 1007.7 1.6
27/04:01pm 8.4 -1.1 6.5 88 0.9 WNW 46 69 25 37 1007.9 1008.0 1.4
27/04:00pm 8.6 -0.9 6.9 89 0.8 WNW 46 61 25 33 1007.9 1008.0 1.4
27/03:48pm 8.6 -0.6 6.2 85 1.1 WNW 44 65 24 35 1007.8 1007.9 1.2
27/03:31pm 8.6 0.3 5.9 83 1.2 WNW 39 59 21 32 1007.4 1007.5 1.0
27/03:30pm 8.6 0.3 5.9 83 1.2 WNW 39 56 21 30 1007.4 1007.5 1.0
27/03:26pm 8.5 0.1 5.8 83 1.2 NW 39 56 21 30 1007.3 1007.4 1.0
27/03:08pm 8.0 0.4 5.8 86 1.0 WNW 35 63 19 34 1007.9 1008.0 0.8
27/03:04pm 8.3 1.2 5.6 83 1.2 WNW 32 63 17 34 1007.9 1008.0 0.8
27/03:00pm 8.2 0.6 5.8 85 1.1 WNW 35 52 19 28 1007.8 1007.9 0.8
27/02:47pm 8.3 0.5 5.1 80 1.4 WNW 35 56 19 30 1008.0 1008.1 0.6
27/02:30pm 7.9 0.2 5.5 85 1.1 WNW 35 48 19 26 1008.0 1008.1 0.6
27/02:00pm 7.4 0.2 5.0 85 1.1 WNW 32 57 17 31 1007.9 1008.0 0.4
27/01:30pm 7.0 0.0 4.0 81 1.3 WNW 30 50 16 27 1008.6 1008.7 0.4
27/01:26pm 7.1 0.0 3.5 78 1.5 WNW 30 50 16 27 1008.8 1008.9 0.2
27/01:00pm 8.9 2.6 3.7 70 2.3 W 26 37 14 20 1008.7 1008.8 0.0
27/12:30pm 9.1 1.2 2.0 61 3.0 W 33 43 18 23 1008.7 1008.8 0.0
27/12:00pm 7.7 0.8 4.7 81 1.3 WNW 30 50 16 27 1008.8 1008.9 0.0
27/11:52am 8.4 1.3 3.5 71 2.1 W 30 50 16 27 1008.7 1008.8 0.0
27/11:45am 9.7 3.0 3.4 65 2.7 W 28 39 15 21 1008.6 1008.7 0.0
27/11:30am 8.8 4.6 4.0 72 2.1 WSW 15 20 8 11 1008.5 1008.6 0.0
27/11:00am 9.3 4.2 4.3 71 2.2 SW 20 30 11 16 1008.3 1008.4 0.0
27/10:30am 7.8 4.8 4.2 78 1.6 SSW 9 15 5 8 1008.2 1008.3 0.0
27/10:00am 9.1 4.0 4.3 72 2.1 W 20 32 11 17 1007.9 1008.0 0.0
27/09:30am 6.9 1.7 2.4 73 1.9 W 19 26 10 14 1007.6 1007.7 0.0
27/09:00am 6.7 2.6 4.2 84 1.1 SW 15 20 8 11 1007.5 1007.6 19.2
27/08:30am 4.3 0.5 1.8 84 1.0 SSW 11 15 6 8 1007.1 1007.2 19.2
27/08:04am 4.8 0.4 2.7 86 0.9 SSW 15 39 8 21 1006.8 1006.9 19.2
27/08:00am 3.8 0.0 1.7 86 0.8 SW 11 13 6 7 1006.6 1006.7 19.2
27/07:30am 4.0 -1.0 1.4 83 1.0 SW 17 20 9 11 1006.1 1006.2 19.2
27/07:00am 3.4 -0.1 1.0 84 0.9 SSW 9 15 5 8 1005.4 1005.5 19.2
27/06:30am 3.0 0.8 0.9 86 0.8 ESE 2 9 1 5 1004.8 1004.9 19.2
27/06:00am 3.0 -1.8 -0.1 80 1.2 SW 15 15 8 8 1004.3 1004.4 19.2
27/05:30am 4.6 0.8 1.8 82 1.1 SW 11 17 6 9 1003.7 1003.8 19.2
27/05:01am 5.1 -1.9 1.9 80 1.3 SW 28 48 15 26 1003.2 1003.3 19.2
27/05:00am 5.1 -2.7 1.9 80 1.3 SW 32 48 17 26 1003.2 1003.3 19.2
27/04:49am 5.3 0.0 3.0 85 0.9 SW 20 50 11 27 1003.0 1003.1 19.2
27/04:30am 4.6 0.6 2.6 87 0.8 SSW 13 20 7 11 1002.5 1002.6 19.0
27/04:00am 5.1 1.3 3.8 91 0.5 SSW 13 22 7 12 1002.0 1002.1 19.0
27/03:30am 5.5 1.3 4.0 90 0.6 S 15 20 8 11 1001.2 1001.3 19.0
27/03:00am 6.1 1.0 3.9 86 0.9 SSW 20 28 11 15 1000.7 1000.8 18.6
27/02:30am 6.3 0.9 4.6 89 0.7 SSW 22 33 12 18 999.8 999.9 18.4
27/02:00am 7.0 0.3 5.6 91 0.6 SW 30 48 16 26 998.5 998.5 18.4
27/01:57am 7.3 1.0 5.9 91 0.6 SW 28 46 15 25 998.4 998.4 18.4
27/01:47am 7.6 1.0 6.2 91 0.6 SW 30 46 16 25 998.0 998.0 18.4
27/01:35am 8.0 0.6 6.6 91 0.6 WSW 35 54 19 29 997.5 997.5 18.2
27/01:30am 8.0 0.6 6.6 91 0.6 WSW 35 54 19 29 997.4 997.4 18.2
27/01:26am 8.4 1.6 7.0 91 0.7 WSW 32 48 17 26 997.2 997.2 18.0
27/01:09am 8.2 1.1 6.2 87 0.9 WNW 33 67 18 36 996.9 996.9 17.6
27/01:07am 8.4 1.4 6.2 86 1.0 WNW 32 67 17 36 997.0 997.0 17.2
27/01:05am 9.1 3.1 6.9 86 1.0 WNW 28 67 15 36 996.7 996.7 16.8
27/01:00am 8.8 1.7 6.6 86 1.0 WNW 33 54 18 29 996.6 996.6 16.6
27/12:51am 8.7 1.4 7.3 91 0.7 NW 35 54 19 29 996.6 996.6 16.6
27/12:47am 8.8 2.1 7.4 91 0.7 NW 32 44 17 24 996.7 996.7 16.4
27/12:34am 8.7 1.5 7.5 92 0.6 NW 35 44 19 24 996.6 996.6 16.0
27/12:30am 8.6 1.7 7.4 92 0.6 NNW 33 44 18 24 996.6 996.6 16.0
27/12:23am 8.2 2.6 7.1 93 0.5 N 26 35 14 19 996.6 996.6 16.0
27/12:19am 7.9 2.6 6.7 92 0.6 N 24 37 13 20 996.7 996.7 16.0
27/12:04am 7.8 2.8 6.4 91 0.6 N 22 37 12 20 996.4 996.4 16.0
27/12:01am 7.9 2.5 6.5 91 0.6 N 24 37 13 20 996.5 996.5 15.8
27/12:00am 7.9 2.5 6.5 91 0.6 N 24 37 13 20 996.5 996.5 15.8
 
Date/Time
EST
Temp
°C
App
Temp
°C
Dew
Point
°C
Rel
Hum
%
Delta-T
°C
Wind Press
QNH
hPa
Press
MSL
hPa
Rain since
9am
mm
Dir  Spd
km/h
Gust
km/h
Spd
kts
Gust
kts
26/11:41pm 8.2 2.2 7.1 93 0.5 NNW 28 46 15 25 996.9 996.9 15.8
26/11:39pm 7.9 1.8 6.7 92 0.6 NNW 28 44 15 24 997.0 997.0 15.8
26/11:31pm 7.7 0.6 6.5 92 0.5 NNW 33 46 18 25 997.0 997.0 15.8
26/11:30pm 7.7 0.6 6.5 92 0.5 NNW 33 46 18 25 997.0 997.0 15.8
26/11:19pm 7.4 0.4 6.2 92 0.5 N 32 56 17 30 997.0 997.0 15.4
26/11:11pm 7.4 2.0 6.2 92 0.5 N 24 43 13 23 996.8 996.8 14.4
26/11:00pm 7.3 2.6 6.1 92 0.5 N 20 32 11 17 996.6 996.6 13.4
26/10:30pm 7.1 1.6 5.9 92 0.5 N 24 33 13 18 996.9 996.9 12.6
26/10:23pm 6.9 2.1 5.7 92 0.5 N 20 30 11 16 996.9 996.9 12.6
26/10:15pm 6.7 2.5 5.5 92 0.5 N 17 24 9 13 997.2 997.2 12.6
26/10:11pm 6.7 2.5 5.5 92 0.5 N 17 30 9 16 997.2 997.2 12.6
26/10:00pm 6.9 1.7 5.7 92 0.5 N 22 33 12 18 997.4 997.4 12.0
26/09:44pm 6.7 1.9 5.5 92 0.5 N 20 30 11 16 997.8 997.8 12.0
26/09:30pm 6.6 0.2 5.4 92 0.5 N 28 48 15 26 997.9 997.9 12.0
26/09:29pm 6.6 0.2 5.4 92 0.5 N 28 48 15 26 997.8 997.8 12.0
26/09:00pm 6.5 3.0 5.5 93 0.4 N 13 28 7 15 998.1 998.1 11.4
26/08:30pm 6.3 2.0 5.4 94 0.4 N 17 30 9 16 998.1 998.1 11.2
26/08:25pm 6.1 2.2 5.2 94 0.4 NNE 15 30 8 16 998.1 998.1 11.2
26/08:07pm 5.4 1.7 4.4 93 0.4 NNE 13 19 7 10 998.7 998.7 11.0
26/08:00pm 5.4 1.7 4.4 93 0.4 NNE 13 20 7 11 998.8 998.8 10.0
26/07:42pm 5.1 1.0 4.1 93 0.4 NNE 15 22 8 12 999.0 999.0 9.6
26/07:30pm 5.2 0.7 4.2 93 0.4 N 17 24 9 13 999.1 999.1 9.6
26/07:24pm 5.2 0.7 4.2 93 0.4 NNE 17 24 9 13 999.3 999.3 9.4
26/07:00pm 5.4 1.3 4.4 93 0.4 NNE 15 30 8 16 999.3 999.3 8.4
26/06:36pm 5.2 0.3 3.9 91 0.5 N 19 28 10 15 999.9 1000.0 7.2
26/06:30pm 5.5 0.6 4.2 91 0.6 NNE 19 24 10 13 1000.0 1000.1 6.2
26/06:00pm 6.1 2.1 4.7 91 0.6 N 15 20 8 11 1000.0 1000.1 6.2
26/05:53pm 5.7 1.6 4.3 91 0.6 N 15 24 8 13 1000.1 1000.2 6.2
26/05:33pm 5.6 2.6 4.1 90 0.6 NNE 9 13 5 7 1000.2 1000.3 5.6
26/05:30pm 5.7 2.3 4.2 90 0.6 NNE 11 17 6 9 999.9 1000.0 5.2
26/05:22pm 5.8 1.7 4.1 89 0.7 N 15 24 8 13 1000.1 1000.2 5.2
26/05:14pm 6.1 -0.9 4.3 88 0.8 NNW 30 44 16 24 1000.2 1000.3 5.2
26/05:07pm 6.4 -2.3 4.2 86 0.9 NW 39 54 21 29 1000.4 1000.5 4.8
26/05:00pm 6.6 -1.4 3.8 82 1.2 NW 35 63 19 34 1000.3 1000.4 4.6
26/04:30pm 6.7 -3.0 4.0 83 1.2 NW 44 61 24 33 1000.5 1000.6 4.4
26/04:17pm 7.0 0.5 4.8 86 1.0 NW 28 48 15 26 1000.4 1000.5 4.2
26/04:15pm 6.9 1.2 4.9 87 0.9 NW 24 39 13 21 1000.4 1000.5 4.2
26/04:00pm 5.8 -2.2 3.8 87 0.8 WNW 35 56 19 30 1000.9 1001.0 4.2
26/03:58pm 5.7 -2.7 3.5 86 0.9 WNW 37 56 20 30 1001.0 1001.1 4.0
26/03:53pm 5.9 -1.6 3.7 86 0.9 WNW 32 54 17 29 1001.1 1001.2 3.8
26/03:52pm 5.9 -1.6 3.6 85 1.0 WNW 32 54 17 29 1001.0 1001.1 3.6
26/03:51pm 5.6 -1.2 3.1 84 1.0 WNW 28 54 15 29 1001.0 1001.1 3.6
26/03:30pm 7.2 0.2 4.3 82 1.3 W 30 41 16 22 1000.3 1000.4 2.6
26/03:00pm 7.8 0.3 3.3 73 1.9 WNW 32 50 17 27 1000.6 1000.7 2.6
26/02:56pm 7.5 0.8 3.6 76 1.7 NW 28 50 15 27 1000.6 1000.7 2.6
26/02:39pm 6.6 1.8 4.9 89 0.7 NW 19 33 10 18 1000.9 1001.0 2.6
26/02:30pm 5.9 0.1 4.4 90 0.6 WNW 24 46 13 25 1001.1 1001.2 2.6
26/02:13pm 6.2 -3.8 4.2 87 0.9 W 46 65 25 35 1001.3 1001.4 1.6
26/02:10pm 6.2 -4.2 4.0 86 0.9 W 48 65 26 35 1001.2 1001.3 1.6
26/02:04pm 7.0 -2.6 3.4 78 1.5 W 43 65 23 35 1001.1 1001.2 1.4
26/02:00pm 8.1 -0.9 4.5 78 1.6 W 41 57 22 31 1001.0 1001.1 1.0
26/01:43pm 8.7 -0.3 2.5 65 2.6 WNW 39 61 21 33 1000.8 1000.9 1.0
26/01:30pm 8.0 -0.9 3.1 71 2.1 WNW 39 56 21 30 1000.9 1001.0 1.0
26/01:20pm 8.7 0.3 3.5 70 2.2 WNW 37 56 20 30 1000.9 1001.0 1.0
26/01:00pm 8.5 1.2 4.5 76 1.8 WNW 32 44 17 24 1001.2 1001.3 1.0
26/12:51pm 8.1 1.7 5.2 82 1.3 WNW 28 41 15 22 1001.3 1001.4 1.0
26/12:33pm 7.1 -2.5 4.2 82 1.3 WNW 44 63 24 34 1001.7 1001.8 1.0
26/12:30pm 7.5 -1.6 3.9 78 1.5 WNW 41 63 22 34 1001.6 1001.7 0.8
26/12:03pm 8.4 0.7 3.5 71 2.1 WNW 33 52 18 28 1001.7 1001.8 0.8
26/12:00pm 8.4 0.8 3.7 72 2.0 W 33 46 18 25 1001.7 1001.8 0.8
26/11:39am 8.5 0.6 4.1 74 1.9 WNW 35 59 19 32 1001.6 1001.7 0.8
26/11:30am 8.2 1.2 4.0 75 1.8 W 30 44 16 24 1001.7 1001.8 0.8
26/11:00am 8.9 0.9 3.9 71 2.2 WNW 35 50 19 27 1001.9 1002.0 0.6
26/10:35am 8.4 -0.6 2.4 66 2.5 WNW 39 57 21 31 1002.0 1002.1 0.6
26/10:30am 8.4 -1.0 2.2 65 2.6 WNW 41 57 22 31 1001.9 1002.0 0.6
26/10:01am 8.0 -0.3 2.3 67 2.4 WNW 35 54 19 29 1001.6 1001.7 0.6
26/10:00am 8.0 0.1 2.5 68 2.3 WNW 33 50 18 27 1001.6 1001.7 0.6
26/09:44am 7.7 0.5 3.2 73 1.9 WNW 30 54 16 29 1001.6 1001.7 0.6
26/09:32am 7.0 -1.0 3.6 79 1.4 WNW 35 52 19 28 1001.6 1001.7 0.6
26/09:30am 6.9 -1.5 3.7 80 1.4 WNW 37 56 20 30 1001.6 1001.7 0.6
26/09:13am 7.0 -2.8 3.3 77 1.6 WNW 44 69 24 37 1001.5 1001.6 0.2
26/09:08am 8.5 0.0 3.1 69 2.3 W 37 56 20 30 1001.2 1001.3 0.0
26/09:00am 8.2 -1.3 2.0 65 2.6 W 41 56 22 30 1001.3 1001.4 16.6
26/08:34am 7.5 0.7 3.0 73 1.9 W 28 48 15 26 1001.0 1001.1 16.6
26/08:30am 6.9 0.5 3.3 78 1.5 W 26 39 14 21 1001.0 1001.1 16.6
26/08:07am 7.8 -1.0 1.6 65 2.5 W 37 56 20 30 1000.7 1000.8 16.4
26/08:00am 7.7 -1.4 1.8 66 2.4 W 39 52 21 28 1000.8 1000.9 16.4
26/07:30am 7.0 -3.6 0.5 63 2.6 W 46 67 25 36 1000.1 1000.2 16.4
26/07:00am 7.3 -1.9 1.4 66 2.4 W 39 65 21 35 999.4 999.5 16.2
26/06:30am 7.0 -2.8 2.1 71 2.0 W 43 61 23 33 998.9 998.9 16.2
26/06:01am 6.2 -5.1 1.5 72 1.9 W 50 69 27 37 998.6 998.6 16.2
26/06:00am 6.2 -4.7 1.5 72 1.9 W 48 69 26 37 998.6 998.6 16.2
26/05:45am 6.1 -3.6 2.9 80 1.3 W 43 69 23 37 998.3 998.3 16.0
26/05:40am 6.8 -3.6 2.1 72 1.9 W 46 69 25 37 998.2 998.2 15.8
26/05:30am 7.0 -3.0 2.3 72 1.9 W 44 59 24 32 997.7 997.7 15.8
26/05:13am 6.6 -4.0 3.2 79 1.4 WNW 48 70 26 38 997.3 997.3 15.8
26/05:00am 5.9 -5.2 2.2 77 1.5 W 50 83 27 45 997.0 997.0 15.8
26/04:57am 5.5 -5.3 2.0 78 1.4 W 48 83 26 45 997.0 997.0 15.6
26/04:54am 7.1 -3.2 2.8 74 1.8 W 46 83 25 45 996.9 996.9 15.2
26/04:30am 5.6 -1.2 3.3 85 1.0 WSW 28 46 15 25 996.6 996.6 15.2
26/04:14am 6.9 -1.3 2.6 74 1.8 W 35 57 19 31 996.3 996.3 15.0
26/04:00am 7.2 -1.9 1.7 68 2.3 W 39 54 21 29 996.1 996.1 14.8
26/03:31am 7.1 -3.3 2.2 71 2.0 W 46 70 25 38 996.1 996.1 14.8
26/03:30am 7.2 -2.8 2.3 71 2.0 W 44 59 24 32 996.0 996.0 14.8
26/03:01am 7.7 -3.6 1.3 64 2.6 W 50 69 27 37 995.3 995.3 14.8
26/03:00am 7.7 -4.0 1.1 63 2.7 W 52 69 28 37 995.3 995.3 14.8
26/02:30am 7.8 -2.1 2.7 70 2.1 W 44 67 24 36 995.0 995.0 14.8
26/02:00am 7.6 -3.6 1.9 67 2.4 W 50 76 27 41 994.6 994.6 14.8
26/01:30am 7.7 -3.0 2.6 70 2.1 W 48 70 26 38 994.0 994.0 14.6
26/01:00am 7.9 -2.4 2.4 68 2.3 WNW 46 67 25 36 993.8 993.8 14.6
26/12:30am 8.4 -1.3 2.6 67 2.4 W 43 61 23 33 993.1 993.1 14.6
26/12:02am 7.8 -2.9 2.3 68 2.3 WNW 48 72 26 39 992.9 992.9 14.6
26/12:00am 7.7 -2.2 2.6 70 2.2 WNW 44 72 24 39 992.8 992.8 14.6
 
Date/Time
EST
Temp
°C
App
Temp
°C
Dew
Point
°C
Rel
Hum
%
Delta-T
°C
Wind Press
QNH
hPa
Press
MSL
hPa
Rain since
9am
mm
Dir  Spd
km/h
Gust
km/h
Spd
kts
Gust
kts
25/11:46pm 6.5 -3.4 2.9 78 1.5 WNW 44 74 24 40 993.0 993.0 14.6
25/11:33pm 6.1 -0.9 4.1 87 0.9 WNW 30 54 16 29 993.4 993.4 14.6
25/11:30pm 6.5 -0.4 4.7 88 0.8 WNW 30 44 16 24 993.0 993.0 14.2
25/11:09pm 5.6 -5.3 3.8 88 0.8 W 50 83 27 45 993.3 993.3 14.2
25/11:00pm 5.5 -6.8 3.0 84 1.0 W 57 85 31 46 993.3 993.3 13.8
25/10:30pm 7.5 -3.7 2.0 68 2.3 W 50 70 27 38 992.2 992.2 13.6
25/10:00pm 6.3 -6.0 3.1 80 1.4 WNW 57 83 31 45 991.9 991.9 13.4
25/09:56pm 7.4 -4.4 2.7 72 2.0 WNW 54 78 29 42 991.6 991.6 13.2
25/09:30pm 7.9 0.3 3.9 76 1.7 WNW 33 57 18 31 991.2 991.2 13.0
25/09:06pm 6.7 0.2 4.5 86 1.0 WNW 28 50 15 27 991.6 991.6 13.0
25/09:00pm 6.5 -0.1 4.3 86 1.0 NW 28 41 15 22 991.6 991.6 12.8
25/08:41pm 7.7 -0.2 4.1 78 1.6 WNW 35 54 19 29 991.3 991.3 12.6
25/08:30pm 7.4 -0.1 4.4 81 1.3 WNW 33 46 18 25 991.4 991.4 12.6
25/08:01pm 6.9 -3.0 4.6 85 1.0 W 46 65 25 35 991.2 991.2 12.6
25/08:00pm 6.8 -3.2 4.5 85 1.0 W 46 63 25 34 991.2 991.2 12.6
25/07:55pm 6.9 -2.1 4.7 86 1.0 W 41 63 22 34 991.2 991.2 12.6
25/07:36pm 6.4 -5.1 4.2 86 0.9 W 54 74 29 40 990.9 990.9 12.2
25/07:30pm 6.9 -3.8 4.7 86 1.0 W 50 74 27 40 990.4 990.4 12.0
25/07:17pm 7.4 -2.0 5.4 87 0.9 W 44 67 24 36 989.7 989.7 11.8
25/07:00pm 7.4 -2.7 5.9 90 0.7 W 48 67 26 36 989.4 989.4 11.4
25/06:59pm 7.5 -2.9 6.0 90 0.7 W 50 69 27 37 989.3 989.3 11.4
25/06:55pm 7.5 -3.3 6.1 91 0.6 W 52 83 28 45 989.3 989.3 11.0
25/06:47pm 7.6 -0.2 6.5 93 0.5 NNW 37 83 20 45 989.0 989.0 10.4
25/06:40pm 7.1 -0.5 5.7 91 0.6 N 35 54 19 29 988.5 988.5 9.0
25/06:38pm 7.1 -0.5 5.7 91 0.6 N 35 54 19 29 988.4 988.4 8.4
25/06:33pm 7.0 -0.6 5.6 91 0.6 N 35 54 19 29 988.0 988.0 8.2
25/06:30pm 7.0 -0.6 5.6 91 0.6 N 35 50 19 27 988.0 988.0 8.2
25/06:00pm 7.1 0.4 5.7 91 0.6 N 30 48 16 26 988.4 988.4 6.6
25/05:30pm 7.7 0.1 5.7 87 0.9 N 35 56 19 30 989.3 989.3 3.0
25/05:19pm 8.1 1.4 5.7 85 1.1 N 30 57 16 31 989.2 989.2 1.6
25/05:16pm 8.1 1.8 5.6 84 1.1 N 28 57 15 31 989.3 989.3 1.6
25/05:00pm 8.9 4.1 5.6 80 1.5 NNE 20 33 11 18 989.5 989.5 0.4
25/04:30pm 9.5 4.2 5.1 74 2.0 N 22 41 12 22 990.2 990.2 0.4
25/04:00pm 9.8 5.1 5.2 73 2.1 N 19 28 10 15 991.2 991.2 0.4
25/03:30pm 10.2 5.0 5.4 72 2.2 N 22 33 12 18 992.5 992.5 0.4
25/03:00pm 10.5 5.3 5.5 71 2.3 N 22 30 12 16 993.6 993.6 0.4
25/02:30pm 11.4 5.1 5.5 67 2.7 NNW 28 39 15 21 994.4 994.4 0.4
25/02:00pm 10.5 3.4 5.5 71 2.3 NNW 32 43 17 23 995.3 995.3 0.4
25/01:30pm 10.8 4.6 6.0 72 2.2 NW 28 35 15 19 996.2 996.2 0.4
25/01:00pm 10.8 4.7 6.4 74 2.1 NW 28 39 15 21 996.9 996.9 0.4

Other Formats:

Comma delimited format used in spreadsheet applications
http://www.bom.gov.au/fwo/IDT60801/IDT60801.94956.axf

JavaScript Object Notation format (JSON) in row-major order
http://www.bom.gov.au/fwo/IDT60801/IDT60801.94956.json